Time;durP1;ratioP1;P1;durP2;ratioP2;P2;SDS_P1;SDS_P2;PMS_P1;PMS_P2;Temp;Humidity;BMP_temperature;BMP_pressure;BME280_temperature;BME280_humidity;BME280_pressure;Samples;Min_cycle;Max_cycle;Signal;HPM_P1;HPM_P2
2023/01/18 00:02:25;;;;;;;7.70;4.80;;;;;;;-0.74;100.00;98647.31;5025836;28;20230;-43
2023/01/18 00:04:50;;;;;;;6.10;4.47;;;;;;;-0.74;100.00;98647.31;5024357;28;20645;-41
2023/01/18 00:07:16;;;;;;;11.30;4.45;;;;;;;-0.79;100.00;98655.31;5023266;28;20172;-46
2023/01/18 00:09:41;;;;;;;7.53;5.00;;;;;;;-0.82;100.00;98641.41;5017954;28;20557;-43
2023/01/18 00:12:07;;;;;;;6.32;4.28;;;;;;;-0.86;100.00;98645.88;5017339;28;20203;-45
2023/01/18 00:14:32;;;;;;;6.43;4.43;;;;;;;-0.88;100.00;98656.41;5017851;28;20188;-47
2023/01/18 00:16:57;;;;;;;10.50;4.30;;;;;;;-0.89;100.00;98651.22;5022671;28;20247;-47
2023/01/18 00:19:23;;;;;;;6.65;4.40;;;;;;;-0.90;100.00;98652.09;5017857;28;20177;-46
2023/01/18 00:21:53;;;;;;;8.85;4.40;;;;;;;-0.96;100.00;98655.78;5018791;28;20192;-46
2023/01/18 00:24:22;;;;;;;6.82;4.68;;;;;;;-0.90;100.00;98654.72;5013860;28;20176;-49
2023/01/18 00:26:48;;;;;;;10.85;4.93;;;;;;;-0.81;100.00;98651.00;5012658;28;20192;-47
2023/01/18 00:29:14;;;;;;;7.43;4.40;;;;;;;-0.89;100.00;98648.59;5021966;28;20319;-42
2023/01/18 00:31:40;;;;;;;7.00;4.07;;;;;;;-0.93;100.00;98645.16;5021967;28;20254;-43
2023/01/18 00:34:06;;;;;;;8.38;4.88;;;;;;;-0.90;100.00;98655.59;5013836;28;20361;-44
2023/01/18 00:36:33;;;;;;;5.50;4.60;;;;;;;-0.88;100.00;98655.56;5016374;28;20311;-45
2023/01/18 00:38:59;;;;;;;8.43;4.10;;;;;;;-0.87;100.00;98659.94;5016833;28;20203;-43
2023/01/18 00:41:24;;;;;;;7.53;4.22;;;;;;;-0.88;100.00;98658.19;5018034;28;20528;-45
2023/01/18 00:43:51;;;;;;;7.35;4.72;;;;;;;-0.79;100.00;98667.59;5018614;28;20173;-45
2023/01/18 00:46:22;;;;;;;7.25;4.25;;;;;;;-0.84;100.00;98675.59;5020939;28;20208;-50
2023/01/18 00:48:49;;;;;;;7.18;4.35;;;;;;;-0.72;100.00;98677.91;5016104;28;20193;-45
2023/01/18 00:51:21;;;;;;;5.85;4.10;;;;;;;-0.70;100.00;98670.84;5016239;28;20176;-45
2023/01/18 00:53:47;;;;;;;6.57;4.13;;;;;;;-0.71;100.00;98674.38;5019790;28;20216;-48
2023/01/18 00:56:20;;;;;;;5.70;4.05;;;;;;;-0.65;100.00;98676.84;5023354;28;20215;-45
2023/01/18 00:58:46;;;;;;;8.68;4.07;;;;;;;-0.64;100.00;98681.16;5026302;28;20598;-51
2023/01/18 01:01:12;;;;;;;10.65;4.38;;;;;;;-0.58;100.00;98677.53;5020041;28;20279;-45
2023/01/18 01:06:44;;;;;;;6.95;4.55;;;;;;;-0.61;100.00;98685.50;5020370;28;20212;-45
2023/01/18 01:09:21;;;;;;;7.32;4.55;;;;;;;-0.61;100.00;98682.88;5021636;28;20684;-46
2023/01/18 01:28:18;;;;;;;7.10;4.50;;;;;;;-0.47;100.00;98711.44;5025170;28;20195;-48
2023/01/18 01:30:44;;;;;;;5.03;4.22;;;;;;;-0.43;100.00;98732.34;5019917;28;20184;-51
2023/01/18 01:33:10;;;;;;;10.00;5.35;;;;;;;-0.46;100.00;98721.03;5016855;28;20615;-49
2023/01/18 01:35:35;;;;;;;5.53;4.38;;;;;;;-0.45;100.00;98728.03;5022452;28;20270;-50
2023/01/18 01:38:01;;;;;;;9.50;5.60;;;;;;;-0.42;100.00;98736.72;5023190;28;20199;-47
2023/01/18 01:40:26;;;;;;;12.00;5.05;;;;;;;-0.42;100.00;98734.09;5020081;28;20173;-48
2023/01/18 01:42:52;;;;;;;11.50;4.50;;;;;;;-0.44;100.00;98743.78;5020512;28;20543;-49
2023/01/18 01:45:18;;;;;;;6.53;4.80;;;;;;;-0.44;100.00;98748.16;5019603;28;20570;-49
2023/01/18 01:47:46;;;;;;;7.78;5.60;;;;;;;-0.43;100.00;98752.53;5022437;28;20247;-49
2023/01/18 01:50:36;;;;;;;9.50;5.03;;;;;;;-0.39;100.00;98761.19;5017938;28;20199;-49
2023/01/18 01:53:02;;;;;;;10.40;4.78;;;;;;;-0.43;100.00;98763.91;5021444;28;20220;-47
2023/01/18 01:55:31;;;;;;;9.57;5.10;;;;;;;-0.42;100.00;98760.38;5019841;28;20232;-49
2023/01/18 01:58:00;;;;;;;8.70;5.20;;;;;;;-0.47;100.00;98770.16;5013736;28;20177;-50
2023/01/18 02:00:26;;;;;;;7.97;5.50;;;;;;;-0.44;100.00;98758.69;5027257;28;20203;-48
2023/01/18 02:02:56;;;;;;;12.98;5.63;;;;;;;-0.43;100.00;98761.28;5021304;28;20636;-47
2023/01/18 02:05:23;;;;;;;9.57;5.65;;;;;;;-0.43;100.00;98763.91;5016534;28;20686;-48
2023/01/18 02:07:49;;;;;;;10.23;5.68;;;;;;;-0.44;100.00;98764.81;5025152;28;20168;-48
2023/01/18 02:10:14;;;;;;;7.78;5.57;;;;;;;-0.42;100.00;98765.66;5018936;28;20629;-47
2023/01/18 02:12:43;;;;;;;6.68;4.95;;;;;;;-0.36;100.00;98763.75;5019513;28;20241;-50
2023/01/18 02:15:09;;;;;;;7.78;6.00;;;;;;;-0.38;100.00;98773.44;5020951;28;20206;-47
2023/01/18 02:17:53;;;;;;;7.63;5.40;;;;;;;-0.38;100.00;98765.56;5024920;28;20185;-48
2023/01/18 02:20:38;;;;;;;9.82;5.93;;;;;;;-0.36;100.00;98763.75;5021613;28;20226;-47
2023/01/18 02:23:10;;;;;;;8.95;5.55;;;;;;;-0.33;100.00;98776.81;5014125;28;20169;-48
2023/01/18 02:26:00;;;;;;;9.13;5.53;;;;;;;-0.32;100.00;98789.06;5015000;28;20205;-49
2023/01/18 02:28:38;;;;;;;6.65;5.72;;;;;;;-0.34;100.00;98789.09;5020249;28;20188;-50
2023/01/18 02:31:27;;;;;;;8.00;6.18;;;;;;;-0.33;100.00;98785.59;5022622;28;20881;-50
2023/01/18 02:34:15;;;;;;;7.00;5.40;;;;;;;-0.37;100.00;98794.47;5019402;28;20749;-49
2023/01/18 02:36:51;;;;;;;8.10;5.85;;;;;;;-0.37;100.00;98801.47;5034047;28;20189;-50
2023/01/18 02:40:01;;;;;;;8.80;5.68;;;;;;;-0.35;100.00;98803.19;5018465;28;20183;-50
2023/01/18 02:48:19;;;;;;;8.20;5.90;;;;;;;-0.52;100.00;98800.13;5020096;28;20199;-49
2023/01/18 02:50:44;;;;;;;8.00;6.22;;;;;;;-0.54;100.00;98801.94;5016966;28;20186;-48
2023/01/18 02:53:14;;;;;;;9.02;6.65;;;;;;;-0.56;100.00;98812.47;5019999;28;20192;-47
2023/01/18 02:56:02;;;;;;;14.98;6.97;;;;;;;-0.59;100.00;98822.19;5020538;28;20210;-48
2023/01/18 02:58:34;;;;;;;9.90;6.35;;;;;;;-0.63;100.00;98821.44;5019495;28;20658;-49
2023/01/18 03:01:08;;;;;;;8.70;6.25;;;;;;;-0.65;100.00;98821.47;5020148;28;20192;-48
2023/01/18 03:03:34;;;;;;;8.55;6.75;;;;;;;-0.62;100.00;98823.16;5022417;28;20180;-48
2023/01/18 03:06:05;;;;;;;10.35;7.25;;;;;;;-0.56;100.00;98823.00;5021546;28;20692;-49
2023/01/18 03:08:37;;;;;;;8.20;6.93;;;;;;;-0.57;100.00;98823.88;5019816;28;20620;-49
2023/01/18 03:11:11;;;;;;;8.98;6.75;;;;;;;-0.53;100.00;98814.16;5023593;28;20671;-48
2023/01/18 03:13:39;;;;;;;13.60;7.32;;;;;;;-0.60;100.00;98820.50;5014715;28;20664;-51
2023/01/18 03:16:11;;;;;;;7.95;6.43;;;;;;;-0.61;100.00;98832.78;5018471;28;20212;-49
2023/01/18 03:19:00;;;;;;;11.75;7.28;;;;;;;-0.69;100.00;98822.44;5019127;28;20236;-48
2023/01/18 03:21:48;;;;;;;9.65;7.18;;;;;;;-0.64;100.00;98828.44;5019024;28;20216;-49
2023/01/18 03:24:15;;;;;;;10.63;7.40;;;;;;;-0.64;100.00;98828.44;5016886;28;20176;-46
2023/01/18 03:26:48;;;;;;;9.25;7.32;;;;;;;-0.63;100.00;98829.31;5027591;28;20635;-49
2023/01/18 03:35:12;;;;;;;11.02;7.95;;;;;;;-0.58;100.00;98839.72;5019205;28;20241;-47
2023/01/18 03:37:41;;;;;;;8.75;7.53;;;;;;;-0.60;100.00;98831.00;5013402;28;20195;-48
2023/01/18 03:40:14;;;;;;;11.93;7.78;;;;;;;-0.57;100.00;98837.03;5022682;28;20595;-49
2023/01/18 03:42:48;;;;;;;11.13;7.88;;;;;;;-0.59;100.00;98841.50;5015861;28;20691;-48
2023/01/18 03:45:46;;;;;;;9.93;7.47;;;;;;;-0.55;100.00;98845.75;5018723;28;20221;-49
2023/01/18 03:48:13;;;;;;;9.73;7.82;;;;;;;-0.54;100.00;98844.88;5014705;28;20266;-47
2023/01/18 03:50:59;;;;;;;9.52;8.52;;;;;;;-0.54;100.00;98844.00;5020878;28;20176;-50
2023/01/18 03:53:33;;;;;;;10.48;8.20;;;;;;;-0.52;100.00;98850.09;5020577;28;20211;-49
2023/01/18 03:56:09;;;;;;;9.70;8.68;;;;;;;-0.49;100.00;98848.22;5021951;28;20649;-50
2023/01/18 03:58:35;;;;;;;9.05;6.95;;;;;;;-0.46;100.00;98855.19;5011786;28;20542;-48
2023/01/18 04:01:05;;;;;;;11.93;8.05;;;;;;;-0.45;100.00;98862.19;5019423;28;20167;-50
2023/01/18 04:03:31;;;;;;;12.63;8.50;;;;;;;-0.43;100.00;98853.34;5019247;28;20176;-48
2023/01/18 04:06:03;;;;;;;9.98;7.93;;;;;;;-0.47;100.00;98856.09;5020819;28;20299;-49
2023/01/18 04:08:28;;;;;;;10.55;8.00;;;;;;;-0.46;100.00;98858.69;5018211;28;20188;-51
2023/01/18 04:10:54;;;;;;;10.27;8.40;;;;;;;-0.50;100.00;98862.31;5019745;28;20523;-49
2023/01/18 04:13:19;;;;;;;10.23;7.78;;;;;;;-0.46;100.00;98863.06;5019817;28;20208;-50
2023/01/18 04:15:45;;;;;;;11.50;8.38;;;;;;;-0.36;100.00;98864.56;5015506;28;20205;-49
2023/01/18 04:18:10;;;;;;;10.27;8.25;;;;;;;-0.37;100.00;98862.88;5017206;28;20619;-48
2023/01/18 04:20:36;;;;;;;8.80;7.93;;;;;;;-0.34;100.00;98873.28;5020727;28;20188;-51
2023/01/18 04:23:01;;;;;;;12.23;8.38;;;;;;;-0.37;100.00;98878.66;5014371;28;20268;-48
2023/01/18 04:25:27;;;;;;;9.10;7.97;;;;;;;-0.35;100.00;98882.09;5016373;28;20675;-50
2023/01/18 04:27:52;;;;;;;13.30;8.35;;;;;;;-0.33;100.00;98863.63;5018931;28;20209;-51
2023/01/18 04:30:18;;;;;;;10.05;8.32;;;;;;;-0.33;100.00;98866.25;5019997;28;20561;-49
2023/01/18 04:32:45;;;;;;;12.20;8.98;;;;;;;-0.40;100.00;98873.44;5028143;28;20199;-48
2023/01/18 04:35:11;;;;;;;10.60;8.95;;;;;;;-0.39;100.00;98876.94;5021799;28;20286;-49
2023/01/18 04:37:37;;;;;;;13.07;8.95;;;;;;;-0.43;100.00;98878.81;5026214;28;20538;-50
2023/01/18 04:40:04;;;;;;;9.57;8.57;;;;;;;-0.43;100.00;98882.28;5016149;28;20185;-47
2023/01/18 04:42:30;;;;;;;13.50;8.55;;;;;;;-0.44;100.00;98893.72;5023432;28;20179;-50
2023/01/18 04:44:57;;;;;;;13.68;8.07;;;;;;;-0.43;100.00;98887.53;5026406;28;20187;-49
2023/01/18 04:47:22;;;;;;;8.95;8.02;;;;;;;-0.36;100.00;98896.16;5027789;28;20551;-49
2023/01/18 04:49:48;;;;;;;9.10;8.20;;;;;;;-0.42;100.00;98889.28;5021100;28;20214;-49
2023/01/18 04:52:13;;;;;;;10.10;8.38;;;;;;;-0.36;100.00;98892.66;5020475;28;21045;-49
2023/01/18 04:54:39;;;;;;;11.15;8.68;;;;;;;-0.42;100.00;98910.34;5020240;28;20314;-51
2023/01/18 04:57:04;;;;;;;12.35;9.40;;;;;;;-0.37;100.00;98904.97;5017696;28;20355;-51
2023/01/18 04:59:30;;;;;;;11.57;9.15;;;;;;;-0.38;100.00;98915.50;5028366;28;20642;-49
2023/01/18 05:01:55;;;;;;;10.20;8.77;;;;;;;-0.35;100.00;98905.78;5020646;28;20211;-50
2023/01/18 05:04:21;;;;;;;11.43;8.75;;;;;;;-0.38;100.00;98920.78;5018766;28;20172;-48
2023/01/18 05:06:47;;;;;;;12.60;9.27;;;;;;;-0.36;100.00;98926.88;5024762;28;20208;-49
2023/01/18 05:09:13;;;;;;;14.95;9.02;;;;;;;-0.38;100.00;98921.63;5018454;28;20780;-50
2023/01/18 05:11:38;;;;;;;10.38;9.20;;;;;;;-0.35;100.00;98929.47;5021223;28;20199;-50
2023/01/18 05:14:04;;;;;;;11.75;8.45;;;;;;;-0.35;100.00;98931.22;5021756;28;20588;-50
2023/01/18 05:16:29;;;;;;;14.90;9.15;;;;;;;-0.23;100.00;98930.91;5018518;28;20192;-49
2023/01/18 05:18:55;;;;;;;11.23;8.90;;;;;;;-0.25;100.00;98937.97;5021082;28;20196;-50
2023/01/18 05:21:21;;;;;;;12.25;9.50;;;;;;;-0.30;100.00;98931.97;5021021;28;20177;-50
2023/01/18 05:23:46;;;;;;;12.25;9.00;;;;;;;-0.29;100.00;98933.69;5021714;28;20181;-49
2023/01/18 05:26:18;;;;;;;11.90;9.85;;;;;;;-0.32;100.00;98939.91;5016321;28;20207;-49
2023/01/18 05:28:45;;;;;;;10.70;9.57;;;;;;;-0.33;100.00;98938.19;5024973;28;20188;-49
2023/01/18 05:31:12;;;;;;;11.07;9.23;;;;;;;-0.28;100.00;98941.56;5017359;28;20229;-50
2023/01/18 05:33:38;;;;;;;13.73;9.63;;;;;;;-0.21;100.00;98951.03;5017311;28;20188;-49
2023/01/18 05:36:03;;;;;;;13.73;9.93;;;;;;;-0.33;100.00;98951.34;5020055;28;20220;-50
2023/01/18 05:38:29;;;;;;;11.75;9.70;;;;;;;-0.33;100.00;98953.09;5028292;28;20188;-47
2023/01/18 05:40:54;;;;;;;11.45;10.25;;;;;;;-0.32;100.00;98965.38;5019647;28;20318;-47
2023/01/18 05:43:22;;;;;;;12.75;10.45;;;;;;;-0.26;100.00;98968.72;5016543;28;20193;-47
2023/01/18 05:45:47;;;;;;;11.52;10.30;;;;;;;-0.42;100.00;98967.31;5021798;28;20212;-48
2023/01/18 05:48:13;;;;;;;14.05;11.18;;;;;;;-0.45;100.00;98968.28;5019675;28;20185;-47
2023/01/18 05:50:43;;;;;;;14.10;11.35;;;;;;;-0.52;100.00;98969.31;5014817;28;20197;-47
2023/01/18 05:53:13;;;;;;;17.50;12.13;;;;;;;-0.48;100.00;98960.47;5020280;28;20207;-49
2023/01/18 05:55:39;;;;;;;13.27;11.60;;;;;;;-0.52;100.00;98976.34;5021875;28;20588;-47
2023/01/18 05:58:05;;;;;;;13.05;11.60;;;;;;;-0.64;100.00;98972.22;5020907;28;20183;-49
2023/01/18 06:00:30;;;;;;;19.23;12.65;;;;;;;-0.70;100.00;98973.25;5021773;28;20610;-49
2023/01/18 06:02:56;;;;;;;17.17;12.50;;;;;;;-0.67;100.00;98999.47;5022150;28;20208;-48
2023/01/18 06:05:23;;;;;;;15.90;12.95;;;;;;;-0.70;100.00;98993.41;5020167;28;20663;-48
2023/01/18 06:07:49;;;;;;;20.27;13.13;;;;;;;-0.67;100.00;98996.84;5020937;28;20168;-48
2023/01/18 06:10:15;;;;;;;16.30;12.50;;;;;;;-0.62;100.00;99012.50;5018114;28;20238;-48
2023/01/18 06:12:41;;;;;;;18.45;14.00;;;;;;;-0.68;100.00;98989.84;5014851;28;20302;-47
2023/01/18 06:15:07;;;;;;;17.30;13.15;;;;;;;-0.67;100.00;99004.72;5022070;28;20279;-47
2023/01/18 06:17:34;;;;;;;15.73;11.75;;;;;;;-0.70;100.00;99010.06;5028708;28;20176;-48
2023/01/18 06:20:00;;;;;;;14.80;12.55;;;;;;;-0.72;100.00;98993.44;5021707;28;20211;-47
2023/01/18 06:22:25;;;;;;;17.80;12.32;;;;;;;-0.69;100.00;99013.53;5020211;28;20346;-47
2023/01/18 06:24:51;;;;;;;15.05;12.80;;;;;;;-0.69;100.00;99013.53;5021202;28;20531;-49
2023/01/18 06:27:16;;;;;;;16.15;12.35;;;;;;;-0.74;100.00;99024.16;5019519;28;20185;-49
2023/01/18 06:29:42;;;;;;;17.63;13.02;;;;;;;-0.79;100.00;99022.53;5015586;28;20176;-49
2023/01/18 06:32:07;;;;;;;15.35;11.93;;;;;;;-0.76;100.00;99022.47;5022309;28;20291;-49
2023/01/18 06:34:33;;;;;;;18.00;12.32;;;;;;;-0.69;100.00;99026.69;5020204;28;20267;-48
2023/01/18 06:36:58;;;;;;;16.80;11.45;;;;;;;-0.68;100.00;99031.03;5016176;28;20692;-49
2023/01/18 06:39:24;;;;;;;18.65;11.30;;;;;;;-0.60;100.00;99036.16;5028713;28;20175;-49
2023/01/18 06:41:50;;;;;;;14.35;11.90;;;;;;;-0.75;100.00;99037.34;5021990;28;20183;-48
2023/01/18 06:44:15;;;;;;;14.48;11.70;;;;;;;-0.74;100.00;99047.84;5015499;28;20258;-48
2023/01/18 06:46:44;;;;;;;14.45;11.93;;;;;;;-0.76;100.00;99049.63;5022525;28;20212;-47
2023/01/18 06:49:10;;;;;;;15.02;11.57;;;;;;;-0.77;100.00;99047.03;5016304;28;20192;-47
2023/01/18 06:51:36;;;;;;;14.45;12.00;;;;;;;-0.79;100.00;99054.06;5018088;28;20161;-49
2023/01/18 06:54:02;;;;;;;16.10;10.95;;;;;;;-0.82;100.00;99051.53;5018482;28;20311;-49
2023/01/18 06:56:28;;;;;;;15.02;11.85;;;;;;;-0.73;100.00;99051.31;5019317;28;20386;-48
2023/01/18 06:58:56;;;;;;;14.88;10.77;;;;;;;-0.77;100.00;99058.41;5015006;28;20654;-47
2023/01/18 07:01:22;;;;;;;15.68;10.93;;;;;;;-0.69;100.00;99064.38;5020254;28;20262;-48
2023/01/18 07:03:47;;;;;;;15.30;10.93;;;;;;;-0.71;100.00;99062.69;5021132;28;20798;-49
2023/01/18 07:06:13;;;;;;;14.73;10.90;;;;;;;-0.65;100.00;99068.66;5021054;28;20196;-49
2023/01/18 07:08:39;;;;;;;11.98;10.35;;;;;;;-0.64;100.00;99069.53;5021645;28;20192;-49
2023/01/18 07:11:11;;;;;;;13.10;10.60;;;;;;;-0.70;100.00;99070.53;5021342;28;20176;-47
2023/01/18 07:13:39;;;;;;;14.38;11.10;;;;;;;-0.72;100.00;99076.72;5019485;28;20184;-47
2023/01/18 07:16:07;;;;;;;13.40;11.00;;;;;;;-0.76;100.00;99080.31;5015910;28;20780;-49
2023/01/18 07:18:33;;;;;;;11.80;10.45;;;;;;;-0.80;100.00;99084.78;5017674;28;20211;-43
2023/01/18 07:21:02;;;;;;;18.48;11.65;;;;;;;-0.92;100.00;99080.63;5019223;28;20204;-47
2023/01/18 07:23:29;;;;;;;19.30;11.70;;;;;;;-0.89;100.00;99088.44;5017448;28;20212;-48
2023/01/18 07:26:00;;;;;;;11.73;10.43;;;;;;;-1.02;100.00;99092.22;5019902;28;20192;-47
2023/01/18 07:28:27;;;;;;;12.52;10.88;;;;;;;-0.96;100.00;99096.47;5014945;28;20188;-49
2023/01/18 07:30:53;;;;;;;16.63;10.63;;;;;;;-0.93;100.00;99105.16;5013764;28;20176;-48
2023/01/18 07:33:18;;;;;;;15.65;10.77;;;;;;;-0.98;100.00;99119.31;5023749;28;20200;-47
2023/01/18 07:35:44;;;;;;;13.43;10.70;;;;;;;-1.01;100.00;99107.06;5015650;28;20197;-46
2023/01/18 07:38:09;;;;;;;16.80;11.48;;;;;;;-1.06;100.00;99115.06;5017192;28;20172;-47
2023/01/18 07:40:34;;;;;;;13.63;11.05;;;;;;;-1.10;100.00;99123.03;5017004;28;20180;-46
2023/01/18 07:43:01;;;;;;;12.32;10.57;;;;;;;-1.11;100.00;99132.69;5018500;28;20172;-49
2023/01/18 07:45:27;;;;;;;14.43;11.40;;;;;;;-1.05;100.00;99122.06;5021366;28;20204;-47
2023/01/18 07:47:53;;;;;;;13.73;11.77;;;;;;;-1.04;100.00;99133.44;5016457;28;20652;-46
2023/01/18 07:50:20;;;;;;;14.23;11.02;;;;;;;-1.02;100.00;99130.78;5013159;28;20176;-48
2023/01/18 07:52:46;;;;;;;15.68;12.35;;;;;;;-0.96;100.00;99130.63;5016093;28;20238;-46
2023/01/18 07:55:11;;;;;;;12.55;11.25;;;;;;;-0.92;100.00;99133.22;5017987;28;20228;-48
2023/01/18 07:57:37;;;;;;;15.27;11.68;;;;;;;-1.10;100.00;99144.03;5020299;28;20245;-47
2023/01/18 08:00:06;;;;;;;14.57;11.02;;;;;;;-1.18;100.00;99151.19;5019314;28;20184;-46
2023/01/18 08:02:37;;;;;;;13.18;11.38;;;;;;;-1.20;100.00;99145.09;5016770;28;20176;-48
2023/01/18 08:05:03;;;;;;;18.25;13.32;;;;;;;-1.20;100.00;99145.09;5019961;28;20655;-49
2023/01/18 08:07:33;;;;;;;17.60;13.30;;;;;;;-1.29;100.00;99143.50;5017672;28;20192;-47
2023/01/18 08:09:59;;;;;;;18.55;12.90;;;;;;;-1.19;100.00;99155.59;5019949;28;20196;-47
2023/01/18 08:12:24;;;;;;;19.30;14.10;;;;;;;-1.32;100.00;99160.19;5029117;28;20211;-45
2023/01/18 08:14:50;;;;;;;19.40;14.13;;;;;;;-1.29;100.00;99160.16;5016731;28;20324;-46
2023/01/18 08:17:15;;;;;;;20.95;15.85;;;;;;;-1.26;100.00;99167.97;5017157;28;20214;-47
2023/01/18 08:19:41;;;;;;;19.17;13.93;;;;;;;-1.27;100.00;99173.25;5022404;28;20184;-47
2023/01/18 08:22:07;;;;;;;21.10;15.57;;;;;;;-1.43;100.00;99170.00;5026559;28;20204;-47
2023/01/18 08:24:32;;;;;;;18.60;14.73;;;;;;;-1.45;100.00;99170.03;5020177;28;20625;-46
2023/01/18 08:26:58;;;;;;;18.27;14.48;;;;;;;-1.51;100.00;99164.91;5021624;28;20295;-48
2023/01/18 08:29:24;;;;;;;21.48;15.15;;;;;;;-1.46;100.00;99165.69;5020220;28;20211;-47
2023/01/18 08:31:54;;;;;;;20.10;15.68;;;;;;;-1.41;100.00;99168.22;5020070;28;20558;-45
2023/01/18 08:34:20;;;;;;;18.08;14.48;;;;;;;-1.33;100.00;99168.13;5031725;28;20224;-48
2023/01/18 08:36:46;;;;;;;20.95;14.48;;;;;;;-1.35;100.00;99173.38;5024470;28;20200;-49
2023/01/18 08:39:13;;;;;;;19.70;14.65;;;;;;;-1.25;100.00;99174.97;5022301;28;20597;-49
2023/01/18 08:41:40;;;;;;;21.02;14.18;;;;;;;-1.20;100.00;99177.53;5016623;28;20718;-47
2023/01/18 08:44:06;;;;;;;26.70;15.60;;;;;;;-1.19;100.00;99184.50;5021006;28;20243;-48
2023/01/18 08:46:31;;;;;;;19.83;14.95;;;;;;;-1.17;100.00;99185.34;5018939;28;20211;-46
2023/01/18 08:49:00;;;;;;;21.27;14.13;;;;;;;-1.08;100.00;99185.16;5013881;28;20169;-47
2023/01/18 08:51:25;;;;;;;19.85;13.48;;;;;;;-1.13;100.00;99181.75;5016586;28;20592;-47
2023/01/18 08:53:53;;;;;;;17.10;14.38;;;;;;;-1.05;100.00;99190.38;5016816;28;20235;-46
2023/01/18 08:56:19;;;;;;;19.67;15.25;;;;;;;-1.01;100.00;99200.84;5013356;28;20228;-47
2023/01/18 08:58:46;;;;;;;20.27;14.50;;;;;;;-0.87;100.00;99194.44;5015057;28;20185;-48
2023/01/18 09:01:12;;;;;;;19.88;14.52;;;;;;;-0.95;100.00;99191.09;5014658;28;20189;-44
2023/01/18 09:03:40;;;;;;;20.20;13.75;;;;;;;-0.99;100.00;99199.91;5019745;28;20194;-46
2023/01/18 09:06:08;;;;;;;20.00;14.38;;;;;;;-0.94;100.00;99202.44;5016816;28;20200;-47
2023/01/18 09:08:34;;;;;;;17.60;13.63;;;;;;;-0.87;100.00;99207.59;5017299;28;20235;-48
2023/01/18 09:11:01;;;;;;;17.05;14.05;;;;;;;-0.79;100.00;99209.19;5025295;28;20183;-50
2023/01/18 09:13:27;;;;;;;20.25;13.88;;;;;;;-0.89;100.00;99205.88;5020730;28;20222;-45
2023/01/18 09:16:00;;;;;;;21.30;13.93;;;;;;;-0.97;100.00;99211.28;5019447;28;20207;-46
2023/01/18 09:18:26;;;;;;;20.38;14.68;;;;;;;-0.79;100.00;99209.19;5021553;28;20246;-49
2023/01/18 09:20:53;;;;;;;21.90;14.77;;;;;;;-0.71;100.00;99209.94;5018482;28;20655;-47
2023/01/18 09:23:19;;;;;;;18.85;14.63;;;;;;;-0.43;100.00;99205.03;5019477;28;20897;-46
2023/01/18 09:25:45;;;;;;;24.33;14.85;;;;;;;-0.43;100.00;99200.63;5025847;28;20204;-47
2023/01/18 09:28:11;;;;;;;18.17;14.35;;;;;;;-0.31;100.00;99203.91;5024156;28;20755;-47
2023/01/18 09:30:38;;;;;;;23.30;14.00;;;;;;;-0.19;100.00;99216.81;5017235;28;20196;-47
2023/01/18 09:33:03;;;;;;;18.85;14.02;;;;;;;0.07;100.00;99216.28;5018777;28;20778;-48
2023/01/18 09:35:29;;;;;;;18.88;13.52;;;;;;;0.19;100.00;99228.28;5015863;28;20203;-45
2023/01/18 09:37:56;;;;;;;18.02;12.27;;;;;;;-0.25;100.00;99230.09;5021935;28;20672;-46
2023/01/18 09:40:39;;;;;;;20.17;12.40;;;;;;;-0.19;100.00;99227.34;5020990;28;20196;-47
2023/01/18 09:43:32;;;;;;;17.98;12.82;;;;;;;-0.24;100.00;99226.53;5019650;28;20169;-51
2023/01/18 09:45:58;;;;;;;16.67;13.00;;;;;;;0.04;100.00;99233.88;5010954;28;20227;-45
2023/01/18 09:48:36;;;;;;;17.17;12.80;;;;;;;0.03;100.00;99240.06;5022488;28;20232;-47
2023/01/18 09:51:19;;;;;;;15.98;12.45;;;;;;;-0.03;100.00;99241.06;5023604;28;20226;-44
2023/01/18 09:53:54;;;;;;;19.77;13.02;;;;;;;-0.15;100.00;99234.28;5027866;28;20623;-47
2023/01/18 09:56:29;;;;;;;16.48;12.82;;;;;;;0.12;100.00;99239.88;5019521;28;20224;-48
2023/01/18 09:59:22;;;;;;;17.33;12.75;;;;;;;-0.08;100.00;99241.16;5023606;28;20186;-48
2023/01/18 10:01:49;;;;;;;14.75;11.50;;;;;;;0.09;100.00;99253.06;5022738;28;20219;-48
2023/01/18 10:04:43;;;;;;;17.35;11.30;;;;;;;0.07;100.00;99249.63;5021083;28;20223;-47
2023/01/18 10:07:17;;;;;;;18.25;13.02;;;;;;;-0.01;100.00;99245.38;5017344;28;20311;-43
2023/01/18 10:09:52;;;;;;;17.73;12.60;;;;;;;-0.04;100.00;99248.09;5037880;28;20298;-47
2023/01/18 10:12:47;;;;;;;15.77;11.93;;;;;;;0.02;100.00;99251.47;5022505;28;20285;-48
2023/01/18 10:15:22;;;;;;;17.23;11.93;;;;;;;0.17;100.00;99251.16;5017137;28;20319;-45
2023/01/18 10:17:52;;;;;;;20.20;12.77;;;;;;;0.16;100.00;99257.34;5021947;28;20168;-50
2023/01/18 10:20:51;;;;;;;17.95;12.23;;;;;;;0.30;100.00;99250.00;5023003;28;20184;-53
2023/01/18 10:23:30;;;;;;;14.75;10.65;;;;;;;0.10;100.00;99252.19;5025191;28;20192;-45
2023/01/18 10:26:08;;;;;;;13.98;10.95;;;;;;;0.10;100.00;99260.09;5022586;28;20211;-50
2023/01/18 10:29:07;;;;;;;18.05;11.15;;;;;;;0.26;100.00;99263.25;5014519;28;20185;-45
2023/01/18 10:32:02;;;;;;;13.02;10.93;;;;;;;0.26;100.00;99269.38;5018992;28;20192;-46
2023/01/18 10:34:34;;;;;;;16.48;11.52;;;;;;;0.29;100.00;99269.34;5015342;28;20185;-44
2023/01/18 10:37:36;;;;;;;15.45;11.05;;;;;;;0.30;100.00;99267.56;5016488;28;20741;-45
2023/01/18 10:40:05;;;;;;;13.90;11.00;;;;;;;0.45;100.00;99271.63;5019188;28;20187;-44
2023/01/18 10:42:33;;;;;;;14.57;11.02;;;;;;;0.45;100.00;99269.88;5027485;28;20213;-50
2023/01/18 10:44:59;;;;;;;15.98;10.57;;;;;;;0.36;100.00;99263.03;5014166;28;20216;-46
2023/01/18 10:47:24;;;;;;;16.85;11.40;;;;;;;0.51;100.00;99269.72;5022476;28;20218;-50
2023/01/18 10:49:56;;;;;;;18.67;11.93;;;;;;;0.35;100.00;99268.31;5016400;28;20558;-45
2023/01/18 10:52:31;;;;;;;14.52;10.45;;;;;;;0.36;100.00;99256.91;5015974;28;20439;-45
2023/01/18 10:55:00;;;;;;;13.32;10.73;;;;;;;0.47;100.00;99261.94;5018124;28;20184;-46
2023/01/18 10:57:44;;;;;;;15.93;10.73;;;;;;;0.55;100.00;99262.63;5014798;28;20283;-45
2023/01/18 11:00:29;;;;;;;18.73;9.93;;;;;;;0.59;100.00;99262.53;5019769;28;20187;-45
2023/01/18 11:02:57;;;;;;;19.38;11.25;;;;;;;0.50;100.00;99261.84;5022398;28;20175;-45
2023/01/18 11:05:30;;;;;;;13.05;9.88;;;;;;;0.60;100.00;99271.28;5017941;28;20308;-50
2023/01/18 11:08:20;;;;;;;14.65;10.60;;;;;;;0.75;100.00;99268.31;5021133;28;20564;-48
2023/01/18 11:10:55;;;;;;;14.55;10.55;;;;;;;0.88;100.00;99273.28;5022743;28;20591;-45
2023/01/18 11:13:26;;;;;;;13.35;9.82;;;;;;;0.51;100.00;99268.88;5019456;28;20712;-44
2023/01/18 11:16:16;;;;;;;15.00;10.18;;;;;;;0.60;100.00;99273.94;5018866;28;20261;-45
2023/01/18 11:19:18;;;;;;;15.48;11.10;;;;;;;0.63;100.00;99271.22;5010369;28;20212;-47
2023/01/18 11:21:48;;;;;;;15.63;10.13;;;;;;;0.50;99.95;99272.38;5018556;28;20712;-58
2023/01/18 11:24:16;;;;;;;17.10;10.60;;;;;;;0.56;100.00;99273.13;5019610;28;20644;-42
2023/01/18 11:27:02;;;;;;;16.55;10.68;;;;;;;0.69;99.73;99265.81;5024214;28;20254;-51
2023/01/18 11:29:38;;;;;;;12.65;10.80;;;;;;;0.78;99.92;99262.94;5021688;28;20196;-46
2023/01/18 11:32:18;;;;;;;15.30;11.25;;;;;;;0.87;100.00;99263.63;5020820;28;20180;-44
2023/01/18 11:34:50;;;;;;;15.25;10.13;;;;;;;0.87;99.63;99261.84;5020201;28;20200;-51
2023/01/18 11:37:36;;;;;;;17.50;10.27;;;;;;;0.84;99.44;99258.44;5017150;28;20616;-46
2023/01/18 11:40:26;;;;;;;13.75;10.55;;;;;;;1.24;99.73;99264.44;5020628;28;20175;-46
2023/01/18 11:43:16;;;;;;;16.55;11.60;;;;;;;0.94;98.71;99267.84;5017816;28;20265;-49
2023/01/18 11:46:05;;;;;;;16.63;11.50;;;;;;;0.98;98.80;99258.97;5019987;28;20249;-45
2023/01/18 11:48:54;;;;;;;13.95;10.35;;;;;;;1.11;98.59;99244.56;5016726;28;20670;-42
2023/01/18 11:51:29;;;;;;;15.65;10.45;;;;;;;1.33;98.18;99257.22;5015770;28;20709;-41
2023/01/18 11:54:21;;;;;;;16.70;10.73;;;;;;;1.28;98.24;99245.91;5020888;28;20203;-47
2023/01/18 11:56:54;;;;;;;13.43;9.95;;;;;;;1.25;97.92;99246.88;5021687;28;20258;-46
2023/01/18 11:59:29;;;;;;;15.30;9.88;;;;;;;1.32;97.63;99252.84;5019347;28;20184;-45
2023/01/18 12:02:37;;;;;;;15.63;10.45;;;;;;;1.24;97.54;99247.75;5019225;28;20179;-47
2023/01/18 12:05:05;;;;;;;16.92;10.05;;;;;;;1.33;97.36;99246.66;5015414;28;20271;-48